Terminal Aerodrome Forecast
Issued by NWS

Home | Current Version | Previous Version | Text Only | Print | Product List | Glossary On
Versions: 1 2 3 4 5 6 7 8 9 10 11 12
000
FTUS43 KMPX 011100
TAFRWF
TAF
KRWF 011120Z 0112/0212 28003KT P6SM SKC
     FM011600 34005KT P6SM SCT050 SCT080
     FM020100 VRB03KT P6SM FEW250=

USA.gov is the U.S. government's official web portal to all federal, state and local government web resources and services.